createdAt,value
2019-02-09T00:00:22.570Z,15.67
2019-02-09T00:01:02.796Z,10.57
2019-02-09T00:01:39.120Z,9.90
2019-02-09T00:02:15.411Z,12.67
2019-02-09T00:02:51.651Z,10.73
2019-02-09T00:03:27.813Z,9.00
2019-02-09T00:04:03.992Z,9.27
2019-02-09T00:04:40.147Z,11.90
2019-02-09T00:05:16.754Z,11.63
2019-02-09T00:05:52.972Z,12.83
2019-02-09T00:06:29.271Z,12.33
2019-02-09T00:07:05.387Z,14.60
2019-02-09T00:07:41.495Z,13.37
2019-02-09T00:08:17.658Z,11.63
2019-02-09T00:08:53.951Z,10.23
2019-02-09T00:09:29.986Z,15.13
2019-02-09T00:10:06.906Z,11.30
2019-02-09T00:10:43.034Z,13.90
2019-02-09T00:11:19.271Z,10.40
2019-02-09T00:11:55.325Z,17.07
2019-02-09T00:12:31.415Z,14.67
2019-02-09T00:13:07.658Z,8.17
2019-02-09T00:13:43.751Z,12.53
2019-02-09T00:14:19.885Z,16.50
2019-02-09T00:14:56.050Z,19.03
2019-02-09T00:15:32.591Z,11.83
2019-02-09T00:16:09.159Z,14.33
2019-02-09T00:16:45.420Z,13.03
2019-02-09T00:17:21.511Z,11.50
2019-02-09T00:17:57.720Z,27.97
2019-02-09T00:18:34.033Z,10.60
2019-02-09T00:19:10.191Z,11.80
2019-02-09T00:19:46.293Z,14.97
2019-02-09T00:20:22.654Z,12.23
2019-02-09T00:20:58.945Z,12.30
2019-02-09T00:21:35.061Z,11.83
2019-02-09T00:22:11.329Z,13.03
2019-02-09T00:22:47.433Z,20.80
2019-02-09T00:23:23.602Z,18.13
2019-02-09T00:23:59.702Z,19.10
2019-02-09T00:24:36.027Z,15.20
2019-02-09T00:25:15.302Z,10.80
2019-02-09T00:25:51.411Z,8.50
2019-02-09T00:26:27.701Z,11.27
2019-02-09T00:27:03.847Z,10.20
2019-02-09T00:27:39.963Z,9.50
2019-02-09T00:28:16.143Z,16.20
2019-02-09T00:28:52.351Z,13.27
2019-02-09T00:29:28.555Z,25.10
2019-02-09T00:30:04.873Z,9.00
2019-02-09T00:30:41.044Z,13.00
2019-02-09T00:31:17.400Z,14.93
2019-02-09T00:31:53.754Z,10.63
2019-02-09T00:32:29.943Z,12.73
2019-02-09T00:33:06.284Z,11.40
2019-02-09T00:33:42.614Z,10.60
2019-02-09T00:34:18.895Z,10.67
2019-02-09T00:34:55.158Z,14.63
2019-02-09T00:35:31.493Z,9.40
2019-02-09T00:36:07.845Z,11.73
2019-02-09T00:36:43.938Z,8.83
2019-02-09T00:37:19.997Z,11.57
2019-02-09T00:37:56.245Z,14.30
2019-02-09T00:38:32.359Z,8.97
2019-02-09T00:39:09.839Z,9.20
2019-02-09T00:39:46.020Z,12.83
2019-02-09T00:40:22.294Z,10.07
2019-02-09T00:40:58.486Z,12.73
2019-02-09T00:41:34.898Z,11.93
2019-02-09T00:42:11.201Z,12.40
2019-02-09T00:42:48.494Z,10.07
2019-02-09T00:43:24.653Z,12.13
2019-02-09T00:44:00.901Z,10.37
2019-02-09T00:44:37.195Z,13.00
2019-02-09T00:45:13.775Z,17.77
2019-02-09T00:45:50.224Z,16.60
2019-02-09T00:46:26.434Z,15.53
2019-02-09T00:47:02.744Z,11.53
2019-02-09T00:47:38.920Z,20.90
2019-02-09T00:48:15.166Z,19.30
2019-02-09T00:48:51.473Z,17.40
2019-02-09T00:49:27.867Z,12.57
2019-02-09T00:50:04.259Z,23.43
2019-02-09T00:50:40.432Z,14.17
2019-02-09T00:51:16.612Z,12.37
2019-02-09T00:51:52.804Z,14.40
2019-02-09T00:52:29.046Z,13.03
2019-02-09T00:53:05.312Z,11.97
2019-02-09T00:53:41.620Z,11.30
2019-02-09T00:54:17.944Z,20.33
2019-02-09T00:54:54.089Z,14.70
2019-02-09T00:55:30.470Z,14.80
2019-02-09T00:56:07.077Z,15.57
2019-02-09T00:56:43.184Z,12.00
2019-02-09T00:57:19.429Z,17.83
2019-02-09T00:57:55.734Z,15.70
2019-02-09T00:58:32.204Z,19.97
2019-02-09T00:59:08.269Z,17.57
2019-02-09T00:59:44.522Z,17.60
2019-02-09T01:00:22.819Z,17.10
2019-02-09T01:00:59.056Z,15.43
2019-02-09T01:01:35.116Z,10.33
2019-02-09T01:02:11.393Z,17.27
2019-02-09T01:02:47.693Z,13.87
2019-02-09T01:03:23.972Z,16.87
2019-02-09T01:04:00.123Z,27.00
2019-02-09T01:04:36.250Z,17.50
2019-02-09T01:05:12.677Z,13.97
2019-02-09T01:05:49.094Z,15.40
2019-02-09T01:06:25.355Z,14.10
2019-02-09T01:07:01.501Z,17.47
2019-02-09T01:07:37.756Z,11.93
2019-02-09T01:08:14.107Z,24.13
2019-02-09T01:08:50.194Z,20.53
2019-02-09T01:09:26.503Z,22.40
2019-02-09T01:10:02.591Z,12.97
2019-02-09T01:10:38.936Z,15.07
2019-02-09T01:11:15.105Z,13.47
2019-02-09T01:11:51.295Z,15.77
2019-02-09T01:12:27.369Z,19.20
2019-02-09T01:13:03.515Z,18.83
2019-02-09T01:13:39.781Z,20.50
2019-02-09T01:14:15.808Z,14.93
2019-02-09T01:14:52.079Z,13.13
2019-02-09T01:15:28.326Z,13.53
2019-02-09T01:16:04.501Z,19.37
2019-02-09T01:16:40.906Z,22.97
2019-02-09T01:17:17.282Z,20.30
2019-02-09T01:17:53.461Z,17.60
2019-02-09T01:18:29.551Z,19.03
2019-02-09T01:19:05.865Z,16.90
2019-02-09T01:19:41.971Z,16.20
2019-02-09T01:20:22.987Z,15.13
2019-02-09T01:20:59.213Z,33.63
2019-02-09T01:21:35.334Z,16.83
2019-02-09T01:22:11.559Z,17.33
2019-02-09T01:22:48.078Z,21.63
2019-02-09T01:23:24.315Z,17.50
2019-02-09T01:24:00.528Z,20.07
2019-02-09T01:24:36.726Z,16.27
2019-02-09T01:25:13.293Z,18.80
2019-02-09T01:25:49.585Z,13.30
2019-02-09T01:26:25.656Z,21.33
2019-02-09T01:27:01.983Z,16.03
2019-02-09T01:27:38.110Z,14.00
2019-02-09T01:28:14.188Z,15.53
2019-02-09T01:28:50.365Z,18.23
2019-02-09T01:29:26.522Z,15.40
2019-02-09T01:30:03.032Z,13.10
2019-02-09T01:30:39.370Z,17.07
2019-02-09T01:31:15.682Z,13.00
2019-02-09T01:31:51.885Z,15.03
2019-02-09T01:32:28.246Z,16.10
2019-02-09T01:33:04.391Z,10.67
2019-02-09T01:33:40.591Z,10.60
2019-02-09T01:34:16.836Z,13.37
2019-02-09T01:34:53.003Z,11.77
2019-02-09T01:35:29.319Z,12.13
2019-02-09T01:36:05.445Z,13.20
2019-02-09T01:36:41.757Z,16.80
2019-02-09T01:37:17.967Z,11.47
2019-02-09T01:37:54.460Z,17.80
2019-02-09T01:38:30.409Z,11.03
2019-02-09T01:39:08.659Z,18.83
2019-02-09T01:39:44.788Z,11.97
2019-02-09T01:40:24.243Z,14.23
2019-02-09T01:41:00.313Z,18.47
2019-02-09T01:41:36.363Z,11.47
2019-02-09T01:42:12.473Z,15.10
2019-02-09T01:42:48.666Z,14.20
2019-02-09T01:43:24.873Z,15.57
2019-02-09T01:44:01.135Z,12.73
2019-02-09T01:44:37.917Z,12.73
2019-02-09T01:45:17.299Z,13.40
2019-02-09T01:45:53.517Z,10.50
2019-02-09T01:46:29.809Z,10.70
2019-02-09T01:47:06.109Z,14.93
2019-02-09T01:47:42.290Z,18.40
2019-02-09T01:48:18.606Z,14.70
2019-02-09T01:48:54.709Z,18.27
2019-02-09T01:49:30.796Z,16.00
2019-02-09T01:50:09.003Z,10.77
2019-02-09T01:50:45.253Z,8.30
2019-02-09T01:51:21.488Z,10.13
2019-02-09T01:51:57.696Z,12.60
2019-02-09T01:52:33.777Z,22.57
2019-02-09T01:53:09.997Z,20.27
2019-02-09T01:53:46.189Z,9.10
2019-02-09T01:54:22.319Z,13.40
2019-02-09T01:54:58.463Z,10.90
2019-02-09T01:55:34.501Z,14.37
2019-02-09T01:56:10.763Z,9.20
2019-02-09T01:56:46.920Z,9.70
2019-02-09T01:57:22.996Z,9.47
2019-02-09T01:57:59.325Z,15.33
2019-02-09T01:58:35.570Z,12.27
2019-02-09T01:59:11.872Z,9.77
2019-02-09T01:59:48.114Z,13.70
2019-02-09T02:00:26.079Z,10.57
2019-02-09T02:01:02.213Z,13.63
2019-02-09T02:01:38.318Z,9.60
2019-02-09T02:02:14.743Z,16.73
2019-02-09T02:02:51.201Z,12.80
2019-02-09T02:03:27.596Z,9.73
2019-02-09T02:04:03.713Z,12.10
2019-02-09T02:04:39.883Z,9.37
2019-02-09T02:05:16.821Z,12.77
2019-02-09T02:05:52.903Z,10.20
2019-02-09T02:06:28.964Z,14.33
2019-02-09T02:07:05.065Z,11.17
2019-02-09T02:07:41.232Z,9.13
2019-02-09T02:08:21.063Z,15.83
2019-02-09T02:08:57.248Z,10.17
2019-02-09T02:09:33.380Z,15.70
2019-02-09T02:10:12.249Z,7.77
2019-02-09T02:10:48.600Z,11.13
2019-02-09T02:11:24.771Z,12.33
2019-02-09T02:12:00.852Z,8.40
2019-02-09T02:12:36.982Z,11.00
2019-02-09T02:13:13.464Z,10.50
2019-02-09T02:13:49.496Z,14.73
2019-02-09T02:14:25.486Z,12.20
2019-02-09T02:15:01.555Z,8.30
2019-02-09T02:15:37.882Z,9.17
2019-02-09T02:16:14.057Z,8.60
2019-02-09T02:16:50.590Z,9.20
2019-02-09T02:17:26.850Z,10.13
2019-02-09T02:18:03.194Z,9.40
2019-02-09T02:18:39.302Z,8.13
2019-02-09T02:19:15.534Z,10.57
2019-02-09T02:19:51.783Z,7.60
2019-02-09T02:20:28.748Z,7.80
2019-02-09T02:21:05.010Z,7.67
2019-02-09T02:21:41.286Z,9.50
2019-02-09T02:22:17.428Z,9.63
2019-02-09T02:22:53.539Z,8.90
2019-02-09T02:23:29.555Z,7.30
2019-02-09T02:24:05.731Z,12.73
2019-02-09T02:24:41.836Z,18.63
2019-02-09T02:25:18.328Z,19.17
2019-02-09T02:25:54.526Z,7.80
2019-02-09T02:26:30.797Z,7.80
2019-02-09T02:27:06.990Z,11.57
2019-02-09T02:27:43.082Z,11.30
2019-02-09T02:28:19.368Z,9.40
2019-02-09T02:28:55.446Z,7.90
2019-02-09T02:29:31.712Z,11.43
2019-02-09T02:30:09.037Z,7.67
2019-02-09T02:30:45.260Z,10.07
2019-02-09T02:31:21.255Z,8.63
2019-02-09T02:31:57.477Z,9.83
2019-02-09T02:32:34.791Z,9.93
2019-02-09T02:33:11.416Z,8.27
2019-02-09T02:33:47.465Z,8.93
2019-02-09T02:34:23.731Z,8.67
2019-02-09T02:34:59.995Z,10.07
2019-02-09T02:35:36.259Z,14.33
2019-02-09T02:36:12.507Z,8.73
2019-02-09T02:36:48.608Z,12.17
2019-02-09T02:37:24.880Z,11.17
2019-02-09T02:38:00.908Z,18.70
2019-02-09T02:38:37.077Z,9.50
2019-02-09T02:39:13.583Z,14.33
2019-02-09T02:39:49.780Z,18.70
2019-02-09T02:40:26.225Z,10.07
2019-02-09T02:41:02.322Z,8.53
2019-02-09T02:41:38.411Z,13.50
2019-02-09T02:42:14.502Z,9.30
2019-02-09T02:42:50.750Z,9.17
2019-02-09T02:43:27.108Z,10.20
2019-02-09T02:44:03.239Z,8.53
2019-02-09T02:44:39.402Z,19.63
2019-02-09T02:45:16.225Z,14.70
2019-02-09T02:45:52.350Z,9.53
2019-02-09T02:46:28.534Z,10.07
2019-02-09T02:47:04.716Z,8.47
2019-02-09T02:47:40.963Z,12.93
2019-02-09T02:48:16.929Z,10.73
2019-02-09T02:48:53.116Z,7.67
2019-02-09T02:49:29.187Z,8.00
2019-02-09T02:50:05.496Z,7.63
2019-02-09T02:50:41.742Z,13.33
2019-02-09T02:51:17.865Z,7.30
2019-02-09T02:51:54.001Z,11.93
2019-02-09T02:52:30.302Z,7.43
2019-02-09T02:53:06.635Z,8.33
2019-02-09T02:53:42.843Z,9.60
2019-02-09T02:54:19.054Z,6.93
2019-02-09T02:54:55.272Z,7.60
2019-02-09T02:55:31.479Z,8.07
2019-02-09T02:56:07.775Z,10.60
2019-02-09T02:56:44.031Z,10.60
2019-02-09T02:57:20.181Z,8.60
2019-02-09T02:57:56.562Z,7.67
2019-02-09T02:58:32.829Z,6.60
2019-02-09T02:59:08.897Z,7.63
2019-02-09T02:59:45.191Z,7.50
2019-02-09T03:00:31.625Z,11.10
2019-02-09T03:01:01.015Z,7.67
2019-02-09T03:01:37.096Z,6.40
2019-02-09T03:02:13.203Z,9.93
2019-02-09T03:02:49.460Z,6.53
2019-02-09T03:03:25.765Z,13.50
2019-02-09T03:04:01.817Z,15.70
2019-02-09T03:04:37.856Z,7.40
2019-02-09T03:05:16.017Z,9.53
2019-02-09T03:05:52.117Z,10.87
2019-02-09T03:06:28.450Z,8.27
2019-02-09T03:07:04.744Z,8.33
2019-02-09T03:07:41.034Z,7.27
2019-02-09T03:08:17.214Z,7.60
2019-02-09T03:08:53.216Z,7.77
2019-02-09T03:09:29.352Z,10.43
2019-02-09T03:10:05.975Z,9.13
2019-02-09T03:10:42.185Z,12.30
2019-02-09T03:11:18.552Z,9.20
2019-02-09T03:11:54.850Z,13.20
2019-02-09T03:12:31.029Z,15.63
2019-02-09T03:13:07.086Z,9.43
2019-02-09T03:13:43.335Z,9.77
2019-02-09T03:14:19.435Z,7.27
2019-02-09T03:14:55.626Z,8.13
2019-02-09T03:15:32.450Z,7.60
2019-02-09T03:16:08.688Z,9.63
2019-02-09T03:16:44.806Z,9.40
2019-02-09T03:17:21.292Z,10.47
2019-02-09T03:17:57.455Z,13.33
2019-02-09T03:18:33.488Z,11.00
2019-02-09T03:19:09.625Z,8.13
2019-02-09T03:19:45.757Z,7.37
2019-02-09T03:20:22.127Z,10.17
2019-02-09T03:20:58.204Z,7.33
2019-02-09T03:21:34.507Z,6.97
2019-02-09T03:22:10.630Z,6.83
2019-02-09T03:22:46.935Z,7.47
2019-02-09T03:23:23.092Z,9.43
2019-02-09T03:23:59.222Z,10.73
2019-02-09T03:24:35.326Z,10.53
2019-02-09T03:25:13.886Z,8.80
2019-02-09T03:25:50.028Z,10.57
2019-02-09T03:26:26.347Z,12.73
2019-02-09T03:27:02.451Z,10.00
2019-02-09T03:27:38.618Z,7.00
2019-02-09T03:28:14.722Z,6.70
2019-02-09T03:28:51.054Z,8.40
2019-02-09T03:29:27.273Z,8.33
2019-02-09T03:30:03.551Z,7.30
2019-02-09T03:30:47.629Z,6.20
2019-02-09T03:31:17.789Z,8.67
2019-02-09T03:31:54.077Z,7.93
2019-02-09T03:32:30.199Z,7.90
2019-02-09T03:33:06.400Z,7.73
2019-02-09T03:33:42.728Z,7.57
2019-02-09T03:34:18.866Z,8.17
2019-02-09T03:34:55.048Z,7.63
2019-02-09T03:35:31.199Z,8.53
2019-02-09T03:36:07.221Z,7.77
2019-02-09T03:36:43.436Z,12.47
2019-02-09T03:37:19.695Z,10.00
2019-02-09T03:37:56.016Z,7.03
2019-02-09T03:38:32.274Z,13.17
2019-02-09T03:39:09.905Z,7.70
2019-02-09T03:39:46.221Z,7.20
2019-02-09T03:40:23.373Z,9.30
2019-02-09T03:40:59.533Z,11.07
2019-02-09T03:41:35.793Z,7.20
2019-02-09T03:42:12.083Z,7.77
2019-02-09T03:42:48.467Z,8.10
2019-02-09T03:43:24.533Z,9.90
2019-02-09T03:44:00.824Z,15.43
2019-02-09T03:44:37.095Z,7.43
2019-02-09T03:45:19.481Z,7.47
2019-02-09T03:45:55.698Z,12.30
2019-02-09T03:46:31.811Z,8.40
2019-02-09T03:47:08.006Z,8.63
2019-02-09T03:47:44.326Z,8.83
2019-02-09T03:48:20.585Z,7.00
2019-02-09T03:48:56.906Z,15.33
2019-02-09T03:49:33.042Z,11.33
2019-02-09T03:50:10.313Z,8.30
2019-02-09T03:50:46.513Z,8.93
2019-02-09T03:51:22.743Z,8.50
2019-02-09T03:51:58.707Z,15.17
2019-02-09T03:52:34.897Z,11.50
2019-02-09T03:53:11.171Z,9.20
2019-02-09T03:53:47.453Z,10.17
2019-02-09T03:54:23.723Z,8.17
2019-02-09T03:54:59.836Z,12.80
2019-02-09T03:55:36.039Z,14.30
2019-02-09T03:56:12.286Z,11.53
2019-02-09T03:56:48.441Z,11.03
2019-02-09T03:57:24.502Z,12.63
2019-02-09T03:58:00.559Z,10.43
2019-02-09T03:58:36.773Z,22.23
2019-02-09T03:59:12.893Z,10.97
2019-02-09T03:59:49.189Z,8.00
2019-02-09T04:00:26.882Z,10.63
2019-02-09T04:01:03.322Z,9.60
2019-02-09T04:01:39.600Z,9.83
2019-02-09T04:02:15.857Z,12.80
2019-02-09T04:02:52.121Z,11.40
2019-02-09T04:03:28.386Z,15.57
2019-02-09T04:04:04.464Z,11.30
2019-02-09T04:04:40.650Z,9.90
2019-02-09T04:05:16.873Z,9.03
2019-02-09T04:05:52.974Z,9.07
2019-02-09T04:06:29.157Z,9.87
2019-02-09T04:07:05.394Z,11.23
2019-02-09T04:07:41.577Z,13.90
2019-02-09T04:08:17.857Z,9.60
2019-02-09T04:08:53.977Z,8.23
2019-02-09T04:09:30.355Z,11.30
2019-02-09T04:10:08.184Z,9.33
2019-02-09T04:10:44.424Z,8.03
2019-02-09T04:11:20.535Z,9.63
2019-02-09T04:11:56.572Z,7.43
2019-02-09T04:12:32.686Z,7.43
2019-02-09T04:13:08.900Z,12.45
2019-02-09T04:13:45.120Z,10.97
2019-02-09T04:14:21.423Z,10.50
2019-02-09T04:14:57.693Z,10.60
2019-02-09T04:15:33.835Z,10.50
2019-02-09T04:16:09.938Z,10.00
2019-02-09T04:16:46.281Z,10.03
2019-02-09T04:17:22.381Z,21.40
2019-02-09T04:17:58.933Z,12.73
2019-02-09T04:18:35.220Z,9.40
2019-02-09T04:19:11.322Z,16.90
2019-02-09T04:19:47.582Z,8.33
2019-02-09T04:20:24.257Z,7.77
2019-02-09T04:21:00.431Z,10.30
2019-02-09T04:21:36.533Z,7.63
2019-02-09T04:22:12.681Z,7.80
2019-02-09T04:22:48.810Z,14.70
2019-02-09T04:23:24.922Z,10.87
2019-02-09T04:24:01.116Z,9.80
2019-02-09T04:24:37.182Z,8.73
2019-02-09T04:25:14.559Z,10.53
2019-02-09T04:25:50.662Z,14.07
2019-02-09T04:26:26.838Z,8.33
2019-02-09T04:27:02.962Z,8.40
2019-02-09T04:27:39.085Z,7.50
2019-02-09T04:28:15.193Z,8.83
2019-02-09T04:28:51.436Z,12.43
2019-02-09T04:29:27.597Z,13.40
2019-02-09T04:30:03.840Z,9.10
2019-02-09T04:30:39.953Z,10.80
2019-02-09T04:31:16.182Z,12.37
2019-02-09T04:31:52.322Z,11.50
2019-02-09T04:32:28.658Z,8.87
2019-02-09T04:33:04.734Z,10.20
2019-02-09T04:33:40.853Z,7.77
2019-02-09T04:34:16.973Z,12.90
2019-02-09T04:34:53.163Z,11.23
2019-02-09T04:35:29.299Z,11.90
2019-02-09T04:36:05.427Z,9.17
2019-02-09T04:36:41.457Z,13.35
2019-02-09T04:37:17.675Z,10.93
2019-02-09T04:37:53.884Z,7.87
2019-02-09T04:38:30.171Z,7.73
2019-02-09T04:39:08.292Z,7.37
2019-02-09T04:39:44.333Z,9.53
2019-02-09T04:40:24.909Z,12.17
2019-02-09T04:41:01.199Z,9.47
2019-02-09T04:41:37.433Z,10.20
2019-02-09T04:42:13.667Z,7.30
2019-02-09T04:42:49.798Z,10.40
2019-02-09T04:43:26.141Z,11.93
2019-02-09T04:44:02.483Z,7.23
2019-02-09T04:44:38.626Z,7.30
2019-02-09T04:45:15.279Z,12.50
2019-02-09T04:45:51.364Z,10.13
2019-02-09T04:46:27.439Z,9.53
2019-02-09T04:47:03.564Z,8.10
2019-02-09T04:47:39.711Z,8.83
2019-02-09T04:48:15.845Z,8.60
2019-02-09T04:48:51.842Z,9.20
2019-02-09T04:49:28.016Z,7.63
2019-02-09T04:50:04.167Z,9.07
2019-02-09T04:50:40.421Z,7.90
2019-02-09T04:51:16.826Z,8.77
2019-02-09T04:51:53.138Z,7.03
2019-02-09T04:52:29.265Z,8.03
2019-02-09T04:53:05.397Z,10.30
2019-02-09T04:53:41.473Z,8.17
2019-02-09T04:54:17.493Z,8.87
2019-02-09T04:54:53.573Z,7.37
2019-02-09T04:55:29.813Z,9.93
2019-02-09T04:56:06.134Z,8.00
2019-02-09T04:56:42.423Z,8.13
2019-02-09T04:57:18.651Z,7.30
2019-02-09T04:57:54.813Z,12.77
2019-02-09T04:58:30.947Z,7.10
2019-02-09T04:59:07.249Z,6.20
2019-02-09T04:59:43.463Z,6.83
2019-02-09T05:00:27.305Z,12.63
2019-02-09T05:01:03.729Z,5.83
2019-02-09T05:01:40.069Z,5.97
2019-02-09T05:02:16.161Z,9.03
2019-02-09T05:02:52.464Z,6.63
2019-02-09T05:03:28.797Z,10.70
2019-02-09T05:04:04.984Z,8.47
2019-02-09T05:04:41.079Z,6.73
2019-02-09T05:05:17.271Z,9.17
2019-02-09T05:05:53.353Z,7.73
2019-02-09T05:06:29.464Z,7.57
2019-02-09T05:07:05.749Z,6.43
2019-02-09T05:07:41.867Z,7.30
2019-02-09T05:08:18.060Z,5.03
2019-02-09T05:08:54.308Z,5.53
2019-02-09T05:09:30.561Z,7.87
2019-02-09T05:10:07.163Z,4.90
2019-02-09T05:10:43.323Z,8.90
2019-02-09T05:11:19.496Z,8.30
2019-02-09T05:11:55.683Z,6.00
2019-02-09T05:12:31.725Z,7.50
2019-02-09T05:13:07.830Z,6.13
2019-02-09T05:13:44.095Z,11.90
2019-02-09T05:14:20.330Z,15.73
2019-02-09T05:14:56.512Z,8.30
2019-02-09T05:15:32.697Z,6.50
2019-02-09T05:16:09.014Z,9.87
2019-02-09T05:16:45.326Z,8.83
2019-02-09T05:17:21.567Z,6.07
2019-02-09T05:17:57.818Z,6.27
2019-02-09T05:18:34.098Z,7.50
2019-02-09T05:19:10.397Z,8.23
2019-02-09T05:19:46.634Z,7.83
2019-02-09T05:20:24.966Z,10.30
2019-02-09T05:21:01.485Z,11.40
2019-02-09T05:21:37.706Z,7.70
2019-02-09T05:22:13.932Z,6.30
2019-02-09T05:22:50.316Z,6.87
2019-02-09T05:23:26.291Z,7.57
2019-02-09T05:24:02.358Z,5.13
2019-02-09T05:24:38.672Z,7.63
2019-02-09T05:25:15.260Z,6.10
2019-02-09T05:25:51.391Z,9.43
2019-02-09T05:26:27.562Z,5.43
2019-02-09T05:27:03.707Z,5.43
2019-02-09T05:27:39.968Z,6.83
2019-02-09T05:28:16.274Z,5.87
2019-02-09T05:28:52.313Z,9.07
2019-02-09T05:29:28.473Z,7.83
2019-02-09T05:30:04.728Z,5.97
2019-02-09T05:30:40.903Z,15.47
2019-02-09T05:31:22.908Z,5.87
2019-02-09T05:31:56.391Z,7.03
2019-02-09T05:32:32.655Z,10.27
2019-02-09T05:33:08.874Z,6.53
2019-02-09T05:33:45.142Z,7.97
2019-02-09T05:34:21.441Z,6.60
2019-02-09T05:34:57.814Z,6.30
2019-02-09T05:35:33.886Z,6.27
2019-02-09T05:36:09.995Z,9.57
2019-02-09T05:36:46.343Z,9.37
2019-02-09T05:37:22.494Z,8.93
2019-02-09T05:37:58.672Z,6.53
2019-02-09T05:38:34.900Z,5.73
2019-02-09T05:39:11.472Z,7.90
2019-02-09T05:39:47.704Z,6.73
2019-02-09T05:40:24.458Z,7.57
2019-02-09T05:41:00.740Z,6.90
2019-02-09T05:41:36.957Z,8.00
2019-02-09T05:42:13.125Z,6.47
2019-02-09T05:42:49.311Z,5.80
2019-02-09T05:43:25.604Z,8.63
2019-02-09T05:44:01.669Z,5.90
2019-02-09T05:44:37.790Z,11.03
2019-02-09T05:45:16.851Z,13.90
2019-02-09T05:45:52.991Z,15.60
2019-02-09T05:46:29.262Z,17.43
2019-02-09T05:47:05.522Z,22.00
2019-02-09T05:47:41.824Z,18.67
2019-02-09T05:48:17.989Z,18.10
2019-02-09T05:48:54.258Z,17.53
2019-02-09T05:49:30.658Z,14.23
2019-02-09T05:50:09.880Z,13.73
2019-02-09T05:50:46.025Z,9.33
2019-02-09T05:51:22.206Z,8.03
2019-02-09T05:51:58.534Z,14.20
2019-02-09T05:52:34.814Z,9.43
2019-02-09T05:53:10.915Z,7.10
2019-02-09T05:53:47.034Z,7.97
2019-02-09T05:54:23.312Z,7.10
2019-02-09T05:54:59.612Z,7.60
2019-02-09T05:55:35.834Z,9.27
2019-02-09T05:56:11.893Z,8.23
2019-02-09T05:56:48.035Z,10.67
2019-02-09T05:57:26.065Z,7.63
2019-02-09T05:58:02.248Z,10.73
2019-02-09T05:58:41.077Z,8.23
2019-02-09T05:59:17.190Z,14.23
2019-02-09T05:59:53.306Z,11.10
2019-02-09T06:00:37.505Z,14.00
2019-02-09T06:01:13.617Z,10.60
2019-02-09T06:01:49.819Z,11.43
2019-02-09T06:02:25.971Z,8.47
2019-02-09T06:03:02.851Z,9.27
2019-02-09T06:03:38.956Z,7.13
2019-02-09T06:04:15.215Z,6.40
2019-02-09T06:04:51.359Z,6.37
2019-02-09T06:05:27.557Z,7.33
2019-02-09T06:06:03.735Z,10.70
2019-02-09T06:06:39.829Z,7.53
2019-02-09T06:07:15.990Z,9.17
2019-02-09T06:07:52.343Z,10.83
2019-02-09T06:08:28.514Z,15.33
2019-02-09T06:09:05.631Z,6.97
2019-02-09T06:09:41.794Z,8.47
2019-02-09T06:10:18.531Z,11.83
2019-02-09T06:10:54.722Z,12.50
2019-02-09T06:11:30.829Z,9.47
2019-02-09T06:12:07.228Z,9.40
2019-02-09T06:12:43.443Z,9.77
2019-02-09T06:13:19.577Z,7.50
2019-02-09T06:13:55.675Z,7.00
2019-02-09T06:14:31.838Z,7.43
2019-02-09T06:15:08.600Z,7.83
2019-02-09T06:15:44.902Z,7.47
2019-02-09T06:16:21.082Z,7.93
2019-02-09T06:16:57.422Z,8.13
2019-02-09T06:17:33.454Z,17.93
2019-02-09T06:18:09.745Z,14.07
2019-02-09T06:18:45.947Z,15.07
2019-02-09T06:19:22.109Z,16.07
2019-02-09T06:19:58.188Z,13.60
2019-02-09T06:20:34.434Z,11.33
2019-02-09T06:21:10.623Z,11.53
2019-02-09T06:21:46.819Z,9.60
2019-02-09T06:22:23.091Z,9.80
2019-02-09T06:22:59.387Z,12.60
2019-02-09T06:23:35.501Z,12.00
2019-02-09T06:24:11.762Z,7.60
2019-02-09T06:24:47.888Z,7.27
2019-02-09T06:25:24.185Z,8.43
2019-02-09T06:26:00.360Z,8.77
2019-02-09T06:26:36.592Z,8.27
2019-02-09T06:27:12.619Z,8.90
2019-02-09T06:27:48.689Z,15.50
2019-02-09T06:28:24.836Z,7.63
2019-02-09T06:29:00.986Z,14.30
2019-02-09T06:29:37.292Z,13.00
2019-02-09T06:30:16.379Z,12.83
2019-02-09T06:30:52.507Z,8.40
2019-02-09T06:31:28.767Z,16.03
2019-02-09T06:32:04.975Z,44.77
2019-02-09T06:32:41.270Z,20.23
2019-02-09T06:33:17.374Z,37.10
2019-02-09T06:33:53.760Z,14.80
2019-02-09T06:34:29.990Z,13.27
2019-02-09T06:35:06.831Z,12.63
2019-02-09T06:35:42.934Z,15.70
2019-02-09T06:36:19.207Z,11.07
2019-02-09T06:36:57.959Z,8.70
2019-02-09T06:37:34.170Z,8.90
2019-02-09T06:38:10.272Z,14.33
2019-02-09T06:38:46.530Z,7.40
2019-02-09T06:39:22.624Z,7.73
2019-02-09T06:39:58.713Z,17.40
2019-02-09T06:40:34.990Z,8.63
2019-02-09T06:41:11.171Z,11.60
2019-02-09T06:41:47.450Z,11.80
2019-02-09T06:42:23.637Z,8.50
2019-02-09T06:42:59.818Z,10.50
2019-02-09T06:43:35.993Z,6.37
2019-02-09T06:44:12.268Z,15.10
2019-02-09T06:44:48.599Z,61.43
2019-02-09T06:45:25.277Z,86.00
2019-02-09T06:46:01.447Z,80.40
2019-02-09T06:46:37.513Z,73.83
2019-02-09T06:47:13.767Z,20.57
2019-02-09T06:47:49.999Z,27.73
2019-02-09T06:48:28.452Z,24.07
2019-02-09T06:49:04.681Z,21.60
2019-02-09T06:49:40.857Z,9.87
2019-02-09T06:50:25.436Z,10.20
2019-02-09T06:51:03.104Z,10.93
2019-02-09T06:51:39.412Z,7.10
2019-02-09T06:52:15.638Z,10.17
2019-02-09T06:52:51.640Z,11.27
2019-02-09T06:53:27.965Z,9.17
2019-02-09T06:54:04.110Z,9.97
2019-02-09T06:54:40.445Z,12.60
2019-02-09T06:55:17.233Z,11.40
2019-02-09T06:55:53.323Z,16.40
2019-02-09T06:56:29.595Z,12.67
2019-02-09T06:57:05.614Z,9.57
2019-02-09T06:57:41.659Z,11.63
2019-02-09T06:58:17.940Z,10.10
2019-02-09T06:58:54.076Z,11.53
2019-02-09T06:59:30.265Z,19.13
2019-02-09T07:00:07.293Z,8.83
2019-02-09T07:00:43.509Z,8.37
2019-02-09T07:01:19.790Z,8.57
2019-02-09T07:01:55.930Z,6.90
2019-02-09T07:02:32.153Z,7.40
2019-02-09T07:03:08.355Z,7.23
2019-02-09T07:03:44.615Z,8.53
2019-02-09T07:04:20.789Z,7.70
2019-02-09T07:04:57.173Z,12.63
2019-02-09T07:05:33.459Z,7.53
2019-02-09T07:06:09.543Z,12.40
2019-02-09T07:06:45.722Z,8.40
2019-02-09T07:07:24.573Z,7.80
2019-02-09T07:08:00.864Z,7.87
2019-02-09T07:08:37.150Z,14.33
2019-02-09T07:09:13.296Z,6.20
2019-02-09T07:09:49.593Z,6.97
2019-02-09T07:10:26.115Z,9.73
2019-02-09T07:11:02.246Z,6.80
2019-02-09T07:11:38.435Z,12.23
2019-02-09T07:12:14.615Z,8.40
2019-02-09T07:12:50.763Z,8.03
2019-02-09T07:13:27.133Z,12.77
2019-02-09T07:14:03.349Z,11.40
2019-02-09T07:14:39.357Z,6.63
2019-02-09T07:15:17.991Z,6.53
2019-02-09T07:15:54.332Z,10.93
2019-02-09T07:16:30.627Z,13.30
2019-02-09T07:17:06.875Z,10.33
2019-02-09T07:17:42.976Z,6.87
2019-02-09T07:18:19.188Z,8.67
2019-02-09T07:18:55.368Z,7.10
2019-02-09T07:19:31.625Z,8.30
2019-02-09T07:20:08.895Z,6.70
2019-02-09T07:20:45.136Z,7.83
2019-02-09T07:21:21.196Z,6.93
2019-02-09T07:21:57.532Z,11.00
2019-02-09T07:22:33.796Z,6.67
2019-02-09T07:23:09.959Z,7.57
2019-02-09T07:23:47.207Z,7.00
2019-02-09T07:24:23.375Z,6.70
2019-02-09T07:24:59.519Z,8.73
2019-02-09T07:25:35.958Z,7.03
2019-02-09T07:26:12.180Z,6.57
2019-02-09T07:26:48.246Z,7.77
2019-02-09T07:27:24.540Z,7.50
2019-02-09T07:28:00.846Z,7.37
2019-02-09T07:28:37.045Z,6.57
2019-02-09T07:29:13.383Z,11.07
2019-02-09T07:29:49.510Z,13.23
2019-02-09T07:30:28.814Z,13.03
2019-02-09T07:31:04.997Z,8.63
2019-02-09T07:31:41.154Z,8.80
2019-02-09T07:32:17.396Z,44.33
2019-02-09T07:32:53.777Z,50.37
2019-02-09T07:33:30.100Z,40.23
2019-02-09T07:34:06.298Z,27.17
2019-02-09T07:34:45.112Z,19.27
2019-02-09T07:35:21.294Z,17.90
2019-02-09T07:35:57.488Z,11.27
2019-02-09T07:36:33.651Z,7.67
2019-02-09T07:37:09.998Z,11.77
2019-02-09T07:37:46.413Z,12.13
2019-02-09T07:38:22.585Z,8.27
2019-02-09T07:38:58.713Z,7.97
2019-02-09T07:39:34.864Z,7.60
2019-02-09T07:40:11.869Z,9.80
2019-02-09T07:40:48.226Z,8.03
2019-02-09T07:41:24.392Z,9.97
2019-02-09T07:42:00.395Z,9.10
2019-02-09T07:42:36.566Z,8.43
2019-02-09T07:43:12.872Z,7.27
2019-02-09T07:43:49.040Z,10.77
2019-02-09T07:44:25.308Z,7.67
2019-02-09T07:45:01.513Z,12.37
2019-02-09T07:45:37.720Z,9.70
2019-02-09T07:46:13.887Z,7.50
2019-02-09T07:46:50.194Z,7.47
2019-02-09T07:47:26.441Z,8.50
2019-02-09T07:48:02.739Z,7.03
2019-02-09T07:48:38.943Z,8.07
2019-02-09T07:49:15.021Z,8.17
2019-02-09T07:49:51.176Z,7.40
2019-02-09T07:50:27.742Z,7.30
2019-02-09T07:51:03.924Z,8.40
2019-02-09T07:51:40.124Z,7.20
2019-02-09T07:52:16.239Z,7.07
2019-02-09T07:52:52.338Z,6.37
2019-02-09T07:53:28.490Z,7.50
2019-02-09T07:54:04.765Z,7.63
2019-02-09T07:54:40.924Z,13.33
2019-02-09T07:55:17.408Z,12.60
2019-02-09T07:55:53.556Z,6.80